sensor_id;sensor_type;location;lat;lon;timestamp;pressure;altitude;pressure_sealevel;temperature;humidity
57250;BME280;43102;52.014;-0.680;2023-12-20T00:00:00;101184;;;5.83;81.13
57250;BME280;43102;52.014;-0.680;2023-12-20T00:01:00;101182;;;5.78;81.17
57250;BME280;43102;52.014;-0.680;2023-12-20T00:02:00;101182;;;5.78;81.17
57250;BME280;43102;52.014;-0.680;2023-12-20T00:03:00;101182;;;5.78;81.17
57250;BME280;43102;52.014;-0.680;2023-12-20T00:04:00;101182;;;5.78;81.17
57250;BME280;43102;52.014;-0.680;2023-12-20T00:05:00;101182;;;5.78;81.17
57250;BME280;43102;52.014;-0.680;2023-12-20T00:06:00;101177;;;5.73;81.26
57250;BME280;43102;52.014;-0.680;2023-12-20T00:07:00;101177;;;5.73;81.26
57250;BME280;43102;52.014;-0.680;2023-12-20T00:08:00;101177;;;5.73;81.26
57250;BME280;43102;52.014;-0.680;2023-12-20T00:09:00;101177;;;5.73;81.26
57250;BME280;43102;52.014;-0.680;2023-12-20T00:10:00;101177;;;5.73;81.26
57250;BME280;43102;52.014;-0.680;2023-12-20T00:11:00;101171;;;5.67;81.39
57250;BME280;43102;52.014;-0.680;2023-12-20T00:12:00;101171;;;5.67;81.39
57250;BME280;43102;52.014;-0.680;2023-12-20T00:13:00;101171;;;5.67;81.39
57250;BME280;43102;52.014;-0.680;2023-12-20T00:14:00;101171;;;5.67;81.39
57250;BME280;43102;52.014;-0.680;2023-12-20T00:15:00;101171;;;5.67;81.39
57250;BME280;43102;52.014;-0.680;2023-12-20T00:16:00;101170;;;5.67;81.49
57250;BME280;43102;52.014;-0.680;2023-12-20T00:17:00;101170;;;5.67;81.49
57250;BME280;43102;52.014;-0.680;2023-12-20T00:18:00;101170;;;5.67;81.49
57250;BME280;43102;52.014;-0.680;2023-12-20T00:19:00;101170;;;5.67;81.49
57250;BME280;43102;52.014;-0.680;2023-12-20T00:20:00;101170;;;5.67;81.49
57250;BME280;43102;52.014;-0.680;2023-12-20T00:21:00;101172;;;5.62;81.58
57250;BME280;43102;52.014;-0.680;2023-12-20T00:22:00;101172;;;5.62;81.58
57250;BME280;43102;52.014;-0.680;2023-12-20T00:23:00;101172;;;5.62;81.58
57250;BME280;43102;52.014;-0.680;2023-12-20T00:24:00;101172;;;5.62;81.58
57250;BME280;43102;52.014;-0.680;2023-12-20T00:25:00;101172;;;5.62;81.58
57250;BME280;43102;52.014;-0.680;2023-12-20T00:26:00;101177;;;5.65;81.53
57250;BME280;43102;52.014;-0.680;2023-12-20T00:27:00;101177;;;5.65;81.53
57250;BME280;43102;52.014;-0.680;2023-12-20T00:28:00;101177;;;5.65;81.53
57250;BME280;43102;52.014;-0.680;2023-12-20T00:29:00;101177;;;5.65;81.53
57250;BME280;43102;52.014;-0.680;2023-12-20T00:30:00;101177;;;5.65;81.53
57250;BME280;43102;52.014;-0.680;2023-12-20T00:31:00;101170;;;5.51;82.03
57250;BME280;43102;52.014;-0.680;2023-12-20T00:32:00;101170;;;5.51;82.03
57250;BME280;43102;52.014;-0.680;2023-12-20T00:33:00;101170;;;5.51;82.03
57250;BME280;43102;52.014;-0.680;2023-12-20T00:34:00;101170;;;5.51;82.03
57250;BME280;43102;52.014;-0.680;2023-12-20T00:35:00;101170;;;5.51;82.03
57250;BME280;43102;52.014;-0.680;2023-12-20T00:36:00;101162;;;5.50;82.08
57250;BME280;43102;52.014;-0.680;2023-12-20T00:37:00;101162;;;5.50;82.08
57250;BME280;43102;52.014;-0.680;2023-12-20T00:38:00;101162;;;5.50;82.08
57250;BME280;43102;52.014;-0.680;2023-12-20T00:39:00;101162;;;5.50;82.08
57250;BME280;43102;52.014;-0.680;2023-12-20T00:40:00;101162;;;5.50;82.08
57250;BME280;43102;52.014;-0.680;2023-12-20T00:41:00;101157;;;5.49;82.15
57250;BME280;43102;52.014;-0.680;2023-12-20T00:42:00;101157;;;5.49;82.15
57250;BME280;43102;52.014;-0.680;2023-12-20T00:43:00;101157;;;5.49;82.15
57250;BME280;43102;52.014;-0.680;2023-12-20T00:44:00;101157;;;5.49;82.15
57250;BME280;43102;52.014;-0.680;2023-12-20T00:45:00;101157;;;5.49;82.15
57250;BME280;43102;52.014;-0.680;2023-12-20T00:46:00;101155;;;5.47;82.34
57250;BME280;43102;52.014;-0.680;2023-12-20T00:47:00;101155;;;5.47;82.34
57250;BME280;43102;52.014;-0.680;2023-12-20T00:48:00;101155;;;5.47;82.34
57250;BME280;43102;52.014;-0.680;2023-12-20T00:49:00;101155;;;5.47;82.34
57250;BME280;43102;52.014;-0.680;2023-12-20T00:50:00;101155;;;5.47;82.34
57250;BME280;43102;52.014;-0.680;2023-12-20T00:51:00;101136;;;5.46;82.32
57250;BME280;43102;52.014;-0.680;2023-12-20T00:52:00;101136;;;5.46;82.32
57250;BME280;43102;52.014;-0.680;2023-12-20T00:53:00;101136;;;5.46;82.32
57250;BME280;43102;52.014;-0.680;2023-12-20T00:54:00;101136;;;5.46;82.32
57250;BME280;43102;52.014;-0.680;2023-12-20T00:55:00;101136;;;5.46;82.32
57250;BME280;43102;52.014;-0.680;2023-12-20T00:56:00;101132;;;5.48;82.20
57250;BME280;43102;52.014;-0.680;2023-12-20T00:57:00;101132;;;5.48;82.20
57250;BME280;43102;52.014;-0.680;2023-12-20T00:58:00;101132;;;5.48;82.20
57250;BME280;43102;52.014;-0.680;2023-12-20T00:59:00;101132;;;5.48;82.20
57250;BME280;43102;52.014;-0.680;2023-12-20T01:00:00;101132;;;5.48;82.20
57250;BME280;43102;52.014;-0.680;2023-12-20T01:01:00;101126;;;5.47;82.20
57250;BME280;43102;52.014;-0.680;2023-12-20T01:02:00;101126;;;5.47;82.20
57250;BME280;43102;52.014;-0.680;2023-12-20T01:03:00;101126;;;5.47;82.20
57250;BME280;43102;52.014;-0.680;2023-12-20T01:04:00;101126;;;5.47;82.20
57250;BME280;43102;52.014;-0.680;2023-12-20T01:05:00;101126;;;5.47;82.20
57250;BME280;43102;52.014;-0.680;2023-12-20T01:06:00;101125;;;5.45;82.43
57250;BME280;43102;52.014;-0.680;2023-12-20T01:07:00;101125;;;5.45;82.43
57250;BME280;43102;52.014;-0.680;2023-12-20T01:08:00;101125;;;5.45;82.43
57250;BME280;43102;52.014;-0.680;2023-12-20T01:09:00;101125;;;5.45;82.43
57250;BME280;43102;52.014;-0.680;2023-12-20T01:10:00;101125;;;5.45;82.43
57250;BME280;43102;52.014;-0.680;2023-12-20T01:11:00;101120;;;5.46;82.23
57250;BME280;43102;52.014;-0.680;2023-12-20T01:12:00;101120;;;5.46;82.23
57250;BME280;43102;52.014;-0.680;2023-12-20T01:13:00;101120;;;5.46;82.23
57250;BME280;43102;52.014;-0.680;2023-12-20T01:14:00;101120;;;5.46;82.23
57250;BME280;43102;52.014;-0.680;2023-12-20T01:15:00;101120;;;5.46;82.23
57250;BME280;43102;52.014;-0.680;2023-12-20T01:16:00;101123;;;5.44;82.26
57250;BME280;43102;52.014;-0.680;2023-12-20T01:17:01;101123;;;5.44;82.26
57250;BME280;43102;52.014;-0.680;2023-12-20T01:18:00;101123;;;5.44;82.26
57250;BME280;43102;52.014;-0.680;2023-12-20T01:19:00;101123;;;5.44;82.26
57250;BME280;43102;52.014;-0.680;2023-12-20T01:20:00;101123;;;5.44;82.26
57250;BME280;43102;52.014;-0.680;2023-12-20T01:21:02;101118;;;5.42;82.30
57250;BME280;43102;52.014;-0.680;2023-12-20T01:22:00;101118;;;5.42;82.30
57250;BME280;43102;52.014;-0.680;2023-12-20T01:23:00;101118;;;5.42;82.30
57250;BME280;43102;52.014;-0.680;2023-12-20T01:24:00;101118;;;5.42;82.30
57250;BME280;43102;52.014;-0.680;2023-12-20T01:25:00;101118;;;5.42;82.30
57250;BME280;43102;52.014;-0.680;2023-12-20T01:26:00;101110;;;5.49;81.97
57250;BME280;43102;52.014;-0.680;2023-12-20T01:27:00;101110;;;5.49;81.97
57250;BME280;43102;52.014;-0.680;2023-12-20T01:28:00;101110;;;5.49;81.97
57250;BME280;43102;52.014;-0.680;2023-12-20T01:29:00;101110;;;5.49;81.97
57250;BME280;43102;52.014;-0.680;2023-12-20T01:30:00;101110;;;5.49;81.97
57250;BME280;43102;52.014;-0.680;2023-12-20T01:31:00;101116;;;5.37;82.30
57250;BME280;43102;52.014;-0.680;2023-12-20T01:32:00;101116;;;5.37;82.30
57250;BME280;43102;52.014;-0.680;2023-12-20T01:33:01;101116;;;5.37;82.30
57250;BME280;43102;52.014;-0.680;2023-12-20T01:34:00;101116;;;5.37;82.30
57250;BME280;43102;52.014;-0.680;2023-12-20T01:35:00;101116;;;5.37;82.30
57250;BME280;43102;52.014;-0.680;2023-12-20T01:36:00;101123;;;5.42;82.11
57250;BME280;43102;52.014;-0.680;2023-12-20T01:37:00;101123;;;5.42;82.11
57250;BME280;43102;52.014;-0.680;2023-12-20T01:38:00;101123;;;5.42;82.11
57250;BME280;43102;52.014;-0.680;2023-12-20T01:39:00;101123;;;5.42;82.11
57250;BME280;43102;52.014;-0.680;2023-12-20T01:40:00;101123;;;5.42;82.11
57250;BME280;43102;52.014;-0.680;2023-12-20T01:41:00;101118;;;5.44;81.80
57250;BME280;43102;52.014;-0.680;2023-12-20T01:42:00;101118;;;5.44;81.80
57250;BME280;43102;52.014;-0.680;2023-12-20T01:43:00;101118;;;5.44;81.80
57250;BME280;43102;52.014;-0.680;2023-12-20T01:44:00;101118;;;5.44;81.80
57250;BME280;43102;52.014;-0.680;2023-12-20T01:45:00;101118;;;5.44;81.80
57250;BME280;43102;52.014;-0.680;2023-12-20T01:46:00;101111;;;5.45;81.81
57250;BME280;43102;52.014;-0.680;2023-12-20T01:47:00;101111;;;5.45;81.81
57250;BME280;43102;52.014;-0.680;2023-12-20T01:48:00;101111;;;5.45;81.81
57250;BME280;43102;52.014;-0.680;2023-12-20T01:49:00;101111;;;5.45;81.81
57250;BME280;43102;52.014;-0.680;2023-12-20T01:50:00;101111;;;5.45;81.81
57250;BME280;43102;52.014;-0.680;2023-12-20T01:51:00;101114;;;5.52;81.75
57250;BME280;43102;52.014;-0.680;2023-12-20T01:52:00;101114;;;5.52;81.75
57250;BME280;43102;52.014;-0.680;2023-12-20T01:53:00;101114;;;5.52;81.75
57250;BME280;43102;52.014;-0.680;2023-12-20T01:54:00;101114;;;5.52;81.75
57250;BME280;43102;52.014;-0.680;2023-12-20T01:55:00;101114;;;5.52;81.75
57250;BME280;43102;52.014;-0.680;2023-12-20T01:56:00;101096;;;5.61;81.49
57250;BME280;43102;52.014;-0.680;2023-12-20T01:57:00;101096;;;5.61;81.49
57250;BME280;43102;52.014;-0.680;2023-12-20T01:58:00;101096;;;5.61;81.49
57250;BME280;43102;52.014;-0.680;2023-12-20T01:59:00;101096;;;5.61;81.49
57250;BME280;43102;52.014;-0.680;2023-12-20T02:00:00;101096;;;5.61;81.49
57250;BME280;43102;52.014;-0.680;2023-12-20T02:01:00;101100;;;5.69;81.43
57250;BME280;43102;52.014;-0.680;2023-12-20T02:02:00;101100;;;5.69;81.43
57250;BME280;43102;52.014;-0.680;2023-12-20T02:03:00;101100;;;5.69;81.43
57250;BME280;43102;52.014;-0.680;2023-12-20T02:04:00;101100;;;5.69;81.43
57250;BME280;43102;52.014;-0.680;2023-12-20T02:05:00;101100;;;5.69;81.43
57250;BME280;43102;52.014;-0.680;2023-12-20T02:06:00;101097;;;5.82;80.95
57250;BME280;43102;52.014;-0.680;2023-12-20T02:07:00;101097;;;5.82;80.95
57250;BME280;43102;52.014;-0.680;2023-12-20T02:08:00;101097;;;5.82;80.95
57250;BME280;43102;52.014;-0.680;2023-12-20T02:09:00;101097;;;5.82;80.95
57250;BME280;43102;52.014;-0.680;2023-12-20T02:10:00;101097;;;5.82;80.95
57250;BME280;43102;52.014;-0.680;2023-12-20T02:11:00;101106;;;5.83;80.84
57250;BME280;43102;52.014;-0.680;2023-12-20T02:12:00;101106;;;5.83;80.84
57250;BME280;43102;52.014;-0.680;2023-12-20T02:13:00;101106;;;5.83;80.84
57250;BME280;43102;52.014;-0.680;2023-12-20T02:14:00;101106;;;5.83;80.84
57250;BME280;43102;52.014;-0.680;2023-12-20T02:15:00;101106;;;5.83;80.84
57250;BME280;43102;52.014;-0.680;2023-12-20T02:16:00;101104;;;5.87;80.82
57250;BME280;43102;52.014;-0.680;2023-12-20T02:17:00;101104;;;5.87;80.82
57250;BME280;43102;52.014;-0.680;2023-12-20T02:18:00;101104;;;5.87;80.82
57250;BME280;43102;52.014;-0.680;2023-12-20T02:19:00;101104;;;5.87;80.82
57250;BME280;43102;52.014;-0.680;2023-12-20T02:20:00;101104;;;5.87;80.82
57250;BME280;43102;52.014;-0.680;2023-12-20T02:21:00;101106;;;5.95;80.55
57250;BME280;43102;52.014;-0.680;2023-12-20T02:22:04;101106;;;5.95;80.55
57250;BME280;43102;52.014;-0.680;2023-12-20T02:23:00;101106;;;5.95;80.55
57250;BME280;43102;52.014;-0.680;2023-12-20T02:24:00;101106;;;5.95;80.55
57250;BME280;43102;52.014;-0.680;2023-12-20T02:25:00;101106;;;5.95;80.55
57250;BME280;43102;52.014;-0.680;2023-12-20T02:26:00;101103;;;6.00;80.23
57250;BME280;43102;52.014;-0.680;2023-12-20T02:27:00;101103;;;6.00;80.23
57250;BME280;43102;52.014;-0.680;2023-12-20T02:28:00;101103;;;6.00;80.23
57250;BME280;43102;52.014;-0.680;2023-12-20T02:29:00;101103;;;6.00;80.23
57250;BME280;43102;52.014;-0.680;2023-12-20T02:30:00;101103;;;6.00;80.23
57250;BME280;43102;52.014;-0.680;2023-12-20T02:31:00;101105;;;6.01;80.08
57250;BME280;43102;52.014;-0.680;2023-12-20T02:32:00;101105;;;6.01;80.08
57250;BME280;43102;52.014;-0.680;2023-12-20T02:33:00;101105;;;6.01;80.08
57250;BME280;43102;52.014;-0.680;2023-12-20T02:34:00;101105;;;6.01;80.08
57250;BME280;43102;52.014;-0.680;2023-12-20T02:35:00;101105;;;6.01;80.08
57250;BME280;43102;52.014;-0.680;2023-12-20T02:36:00;101107;;;6.04;79.79
57250;BME280;43102;52.014;-0.680;2023-12-20T02:37:00;101107;;;6.04;79.79
57250;BME280;43102;52.014;-0.680;2023-12-20T02:38:00;101107;;;6.04;79.79
57250;BME280;43102;52.014;-0.680;2023-12-20T02:39:00;101107;;;6.04;79.79
57250;BME280;43102;52.014;-0.680;2023-12-20T02:40:00;101107;;;6.04;79.79
57250;BME280;43102;52.014;-0.680;2023-12-20T02:41:00;101097;;;6.00;79.77
57250;BME280;43102;52.014;-0.680;2023-12-20T02:42:00;101097;;;6.00;79.77
57250;BME280;43102;52.014;-0.680;2023-12-20T02:43:00;101097;;;6.00;79.77
57250;BME280;43102;52.014;-0.680;2023-12-20T02:44:01;101097;;;6.00;79.77
57250;BME280;43102;52.014;-0.680;2023-12-20T02:45:00;101097;;;6.00;79.77
57250;BME280;43102;52.014;-0.680;2023-12-20T02:46:00;101096;;;5.88;80.57
57250;BME280;43102;52.014;-0.680;2023-12-20T02:47:00;101096;;;5.88;80.57
57250;BME280;43102;52.014;-0.680;2023-12-20T02:48:00;101096;;;5.88;80.57
57250;BME280;43102;52.014;-0.680;2023-12-20T02:49:00;101096;;;5.88;80.57
57250;BME280;43102;52.014;-0.680;2023-12-20T02:50:00;101096;;;5.88;80.57
57250;BME280;43102;52.014;-0.680;2023-12-20T02:51:00;101095;;;5.89;80.55
57250;BME280;43102;52.014;-0.680;2023-12-20T02:52:00;101095;;;5.89;80.55
57250;BME280;43102;52.014;-0.680;2023-12-20T02:53:00;101095;;;5.89;80.55
57250;BME280;43102;52.014;-0.680;2023-12-20T02:54:00;101095;;;5.89;80.55
57250;BME280;43102;52.014;-0.680;2023-12-20T02:55:00;101095;;;5.89;80.55
57250;BME280;43102;52.014;-0.680;2023-12-20T02:56:00;101105;;;5.96;80.37
57250;BME280;43102;52.014;-0.680;2023-12-20T02:57:00;101105;;;5.96;80.37
57250;BME280;43102;52.014;-0.680;2023-12-20T02:58:00;101105;;;5.96;80.37
57250;BME280;43102;52.014;-0.680;2023-12-20T02:59:00;101105;;;5.96;80.37
57250;BME280;43102;52.014;-0.680;2023-12-20T03:00:00;101105;;;5.96;80.37
57250;BME280;43102;52.014;-0.680;2023-12-20T03:01:00;101104;;;5.94;80.35
57250;BME280;43102;52.014;-0.680;2023-12-20T03:02:00;101104;;;5.94;80.35
57250;BME280;43102;52.014;-0.680;2023-12-20T03:03:00;101104;;;5.94;80.35
57250;BME280;43102;52.014;-0.680;2023-12-20T03:04:00;101104;;;5.94;80.35
57250;BME280;43102;52.014;-0.680;2023-12-20T03:05:00;101104;;;5.94;80.35
57250;BME280;43102;52.014;-0.680;2023-12-20T03:06:00;101109;;;5.91;80.38
57250;BME280;43102;52.014;-0.680;2023-12-20T03:07:00;101109;;;5.91;80.38
57250;BME280;43102;52.014;-0.680;2023-12-20T03:08:00;101109;;;5.91;80.38
57250;BME280;43102;52.014;-0.680;2023-12-20T03:09:00;101109;;;5.91;80.38
57250;BME280;43102;52.014;-0.680;2023-12-20T03:10:00;101109;;;5.91;80.38
57250;BME280;43102;52.014;-0.680;2023-12-20T03:11:00;101110;;;5.88;80.48
57250;BME280;43102;52.014;-0.680;2023-12-20T03:12:00;101110;;;5.88;80.48
57250;BME280;43102;52.014;-0.680;2023-12-20T03:13:00;101110;;;5.88;80.48
57250;BME280;43102;52.014;-0.680;2023-12-20T03:14:00;101110;;;5.88;80.48
57250;BME280;43102;52.014;-0.680;2023-12-20T03:15:00;101110;;;5.88;80.48
57250;BME280;43102;52.014;-0.680;2023-12-20T03:16:00;101113;;;5.90;80.76
57250;BME280;43102;52.014;-0.680;2023-12-20T03:17:00;101113;;;5.90;80.76
57250;BME280;43102;52.014;-0.680;2023-12-20T03:18:00;101113;;;5.90;80.76
57250;BME280;43102;52.014;-0.680;2023-12-20T03:19:00;101113;;;5.90;80.76
57250;BME280;43102;52.014;-0.680;2023-12-20T03:20:00;101113;;;5.90;80.76
57250;BME280;43102;52.014;-0.680;2023-12-20T03:21:00;101121;;;6.08;80.18
57250;BME280;43102;52.014;-0.680;2023-12-20T03:22:00;101121;;;6.08;80.18
57250;BME280;43102;52.014;-0.680;2023-12-20T03:23:00;101121;;;6.08;80.18
57250;BME280;43102;52.014;-0.680;2023-12-20T03:24:00;101121;;;6.08;80.18
57250;BME280;43102;52.014;-0.680;2023-12-20T03:25:00;101121;;;6.08;80.18
57250;BME280;43102;52.014;-0.680;2023-12-20T03:26:00;101115;;;6.12;79.94
57250;BME280;43102;52.014;-0.680;2023-12-20T03:27:00;101115;;;6.12;79.94
57250;BME280;43102;52.014;-0.680;2023-12-20T03:28:00;101115;;;6.12;79.94
57250;BME280;43102;52.014;-0.680;2023-12-20T03:29:00;101115;;;6.12;79.94
57250;BME280;43102;52.014;-0.680;2023-12-20T03:30:00;101115;;;6.12;79.94
57250;BME280;43102;52.014;-0.680;2023-12-20T03:31:00;101120;;;6.14;80.02
57250;BME280;43102;52.014;-0.680;2023-12-20T03:32:00;101120;;;6.14;80.02
57250;BME280;43102;52.014;-0.680;2023-12-20T03:33:00;101120;;;6.14;80.02
57250;BME280;43102;52.014;-0.680;2023-12-20T03:34:00;101120;;;6.14;80.02
57250;BME280;43102;52.014;-0.680;2023-12-20T03:35:00;101120;;;6.14;80.02
57250;BME280;43102;52.014;-0.680;2023-12-20T03:36:00;101108;;;6.21;79.85
57250;BME280;43102;52.014;-0.680;2023-12-20T03:37:00;101108;;;6.21;79.85
57250;BME280;43102;52.014;-0.680;2023-12-20T03:38:00;101108;;;6.21;79.85
57250;BME280;43102;52.014;-0.680;2023-12-20T03:39:00;101108;;;6.21;79.85
57250;BME280;43102;52.014;-0.680;2023-12-20T03:40:00;101108;;;6.21;79.85
57250;BME280;43102;52.014;-0.680;2023-12-20T03:41:00;101096;;;6.25;79.77
57250;BME280;43102;52.014;-0.680;2023-12-20T03:42:00;101096;;;6.25;79.77
57250;BME280;43102;52.014;-0.680;2023-12-20T03:43:00;101096;;;6.25;79.77
57250;BME280;43102;52.014;-0.680;2023-12-20T03:44:00;101096;;;6.25;79.77
57250;BME280;43102;52.014;-0.680;2023-12-20T03:45:00;101096;;;6.25;79.77
57250;BME280;43102;52.014;-0.680;2023-12-20T03:46:00;101099;;;6.23;79.97
57250;BME280;43102;52.014;-0.680;2023-12-20T03:47:00;101099;;;6.23;79.97
57250;BME280;43102;52.014;-0.680;2023-12-20T03:48:00;101099;;;6.23;79.97
57250;BME280;43102;52.014;-0.680;2023-12-20T03:49:00;101099;;;6.23;79.97
57250;BME280;43102;52.014;-0.680;2023-12-20T03:50:00;101099;;;6.23;79.97
57250;BME280;43102;52.014;-0.680;2023-12-20T03:51:00;101091;;;6.28;79.91
57250;BME280;43102;52.014;-0.680;2023-12-20T03:52:00;101091;;;6.28;79.91
57250;BME280;43102;52.014;-0.680;2023-12-20T03:53:00;101091;;;6.28;79.91
57250;BME280;43102;52.014;-0.680;2023-12-20T03:54:00;101091;;;6.28;79.91
57250;BME280;43102;52.014;-0.680;2023-12-20T03:55:00;101091;;;6.28;79.91
57250;BME280;43102;52.014;-0.680;2023-12-20T03:56:00;101092;;;6.35;79.67
57250;BME280;43102;52.014;-0.680;2023-12-20T03:57:00;101092;;;6.35;79.67
57250;BME280;43102;52.014;-0.680;2023-12-20T03:58:00;101092;;;6.35;79.67
57250;BME280;43102;52.014;-0.680;2023-12-20T03:59:00;101092;;;6.35;79.67
57250;BME280;43102;52.014;-0.680;2023-12-20T04:00:00;101092;;;6.35;79.67
57250;BME280;43102;52.014;-0.680;2023-12-20T04:01:00;101087;;;6.36;79.73
57250;BME280;43102;52.014;-0.680;2023-12-20T04:02:00;101087;;;6.36;79.73
57250;BME280;43102;52.014;-0.680;2023-12-20T04:03:00;101087;;;6.36;79.73
57250;BME280;43102;52.014;-0.680;2023-12-20T04:04:00;101087;;;6.36;79.73
57250;BME280;43102;52.014;-0.680;2023-12-20T04:05:00;101087;;;6.36;79.73
57250;BME280;43102;52.014;-0.680;2023-12-20T04:06:00;101084;;;6.43;79.78
57250;BME280;43102;52.014;-0.680;2023-12-20T04:07:00;101084;;;6.43;79.78
57250;BME280;43102;52.014;-0.680;2023-12-20T04:08:01;101084;;;6.43;79.78
57250;BME280;43102;52.014;-0.680;2023-12-20T04:09:00;101084;;;6.43;79.78
57250;BME280;43102;52.014;-0.680;2023-12-20T04:10:00;101084;;;6.43;79.78
57250;BME280;43102;52.014;-0.680;2023-12-20T04:11:00;101080;;;6.47;79.59
57250;BME280;43102;52.014;-0.680;2023-12-20T04:12:00;101080;;;6.47;79.59
57250;BME280;43102;52.014;-0.680;2023-12-20T04:13:00;101080;;;6.47;79.59
57250;BME280;43102;52.014;-0.680;2023-12-20T04:14:00;101080;;;6.47;79.59
57250;BME280;43102;52.014;-0.680;2023-12-20T04:15:00;101080;;;6.47;79.59
57250;BME280;43102;52.014;-0.680;2023-12-20T04:16:00;101084;;;6.46;79.75
57250;BME280;43102;52.014;-0.680;2023-12-20T04:17:00;101084;;;6.46;79.75
57250;BME280;43102;52.014;-0.680;2023-12-20T04:18:00;101084;;;6.46;79.75
57250;BME280;43102;52.014;-0.680;2023-12-20T04:19:00;101084;;;6.46;79.75
57250;BME280;43102;52.014;-0.680;2023-12-20T04:20:00;101084;;;6.46;79.75
57250;BME280;43102;52.014;-0.680;2023-12-20T04:21:00;101070;;;6.48;79.71
57250;BME280;43102;52.014;-0.680;2023-12-20T04:22:00;101070;;;6.48;79.71
57250;BME280;43102;52.014;-0.680;2023-12-20T04:23:00;101070;;;6.48;79.71
57250;BME280;43102;52.014;-0.680;2023-12-20T04:24:00;101070;;;6.48;79.71
57250;BME280;43102;52.014;-0.680;2023-12-20T04:25:00;101070;;;6.48;79.71
57250;BME280;43102;52.014;-0.680;2023-12-20T04:26:00;101059;;;6.51;79.74
57250;BME280;43102;52.014;-0.680;2023-12-20T04:27:00;101059;;;6.51;79.74
57250;BME280;43102;52.014;-0.680;2023-12-20T04:28:00;101059;;;6.51;79.74
57250;BME280;43102;52.014;-0.680;2023-12-20T04:29:00;101059;;;6.51;79.74
57250;BME280;43102;52.014;-0.680;2023-12-20T04:30:00;101059;;;6.51;79.74
57250;BME280;43102;52.014;-0.680;2023-12-20T04:31:00;101064;;;6.55;79.58
57250;BME280;43102;52.014;-0.680;2023-12-20T04:32:00;101064;;;6.55;79.58
57250;BME280;43102;52.014;-0.680;2023-12-20T04:33:00;101064;;;6.55;79.58
57250;BME280;43102;52.014;-0.680;2023-12-20T04:34:00;101064;;;6.55;79.58
57250;BME280;43102;52.014;-0.680;2023-12-20T04:35:01;101064;;;6.55;79.58
57250;BME280;43102;52.014;-0.680;2023-12-20T04:36:00;101067;;;6.55;79.74
57250;BME280;43102;52.014;-0.680;2023-12-20T04:37:00;101067;;;6.55;79.74
57250;BME280;43102;52.014;-0.680;2023-12-20T04:38:00;101067;;;6.55;79.74
57250;BME280;43102;52.014;-0.680;2023-12-20T04:39:00;101067;;;6.55;79.74
57250;BME280;43102;52.014;-0.680;2023-12-20T04:40:00;101067;;;6.55;79.74
57250;BME280;43102;52.014;-0.680;2023-12-20T04:41:00;101076;;;6.63;79.58
57250;BME280;43102;52.014;-0.680;2023-12-20T04:42:00;101076;;;6.63;79.58
57250;BME280;43102;52.014;-0.680;2023-12-20T04:43:00;101076;;;6.63;79.58
57250;BME280;43102;52.014;-0.680;2023-12-20T04:44:00;101076;;;6.63;79.58
57250;BME280;43102;52.014;-0.680;2023-12-20T04:45:00;101076;;;6.63;79.58
57250;BME280;43102;52.014;-0.680;2023-12-20T04:46:00;101073;;;6.63;79.74
57250;BME280;43102;52.014;-0.680;2023-12-20T04:47:00;101073;;;6.63;79.74
57250;BME280;43102;52.014;-0.680;2023-12-20T04:48:01;101073;;;6.63;79.74
57250;BME280;43102;52.014;-0.680;2023-12-20T04:49:00;101073;;;6.63;79.74
57250;BME280;43102;52.014;-0.680;2023-12-20T04:50:00;101073;;;6.63;79.74
57250;BME280;43102;52.014;-0.680;2023-12-20T04:51:00;101071;;;6.65;79.55
57250;BME280;43102;52.014;-0.680;2023-12-20T04:52:00;101071;;;6.65;79.55
57250;BME280;43102;52.014;-0.680;2023-12-20T04:53:00;101071;;;6.65;79.55
57250;BME280;43102;52.014;-0.680;2023-12-20T04:54:00;101071;;;6.65;79.55
57250;BME280;43102;52.014;-0.680;2023-12-20T04:55:00;101071;;;6.65;79.55
57250;BME280;43102;52.014;-0.680;2023-12-20T04:56:00;101072;;;6.63;79.68
57250;BME280;43102;52.014;-0.680;2023-12-20T04:57:00;101072;;;6.63;79.68
57250;BME280;43102;52.014;-0.680;2023-12-20T04:58:00;101072;;;6.63;79.68
57250;BME280;43102;52.014;-0.680;2023-12-20T04:59:00;101072;;;6.63;79.68
57250;BME280;43102;52.014;-0.680;2023-12-20T05:00:00;101072;;;6.63;79.68
57250;BME280;43102;52.014;-0.680;2023-12-20T05:01:00;101068;;;6.65;79.55
57250;BME280;43102;52.014;-0.680;2023-12-20T05:02:00;101068;;;6.65;79.55
57250;BME280;43102;52.014;-0.680;2023-12-20T05:03:00;101068;;;6.65;79.55
57250;BME280;43102;52.014;-0.680;2023-12-20T05:04:00;101068;;;6.65;79.55
57250;BME280;43102;52.014;-0.680;2023-12-20T05:05:00;101068;;;6.65;79.55
57250;BME280;43102;52.014;-0.680;2023-12-20T05:06:00;101060;;;6.61;79.63
57250;BME280;43102;52.014;-0.680;2023-12-20T05:07:00;101060;;;6.61;79.63
57250;BME280;43102;52.014;-0.680;2023-12-20T05:08:00;101060;;;6.61;79.63
57250;BME280;43102;52.014;-0.680;2023-12-20T05:09:00;101060;;;6.61;79.63
57250;BME280;43102;52.014;-0.680;2023-12-20T05:10:00;101060;;;6.61;79.63
57250;BME280;43102;52.014;-0.680;2023-12-20T05:11:00;101046;;;6.59;79.81
57250;BME280;43102;52.014;-0.680;2023-12-20T05:12:00;101046;;;6.59;79.81
57250;BME280;43102;52.014;-0.680;2023-12-20T05:13:00;101046;;;6.59;79.81
57250;BME280;43102;52.014;-0.680;2023-12-20T05:14:00;101046;;;6.59;79.81
57250;BME280;43102;52.014;-0.680;2023-12-20T05:15:00;101046;;;6.59;79.81
57250;BME280;43102;52.014;-0.680;2023-12-20T05:16:00;101032;;;6.57;79.96
57250;BME280;43102;52.014;-0.680;2023-12-20T05:17:00;101032;;;6.57;79.96
57250;BME280;43102;52.014;-0.680;2023-12-20T05:18:00;101032;;;6.57;79.96
57250;BME280;43102;52.014;-0.680;2023-12-20T05:19:01;101032;;;6.57;79.96
57250;BME280;43102;52.014;-0.680;2023-12-20T05:20:00;101032;;;6.57;79.96
57250;BME280;43102;52.014;-0.680;2023-12-20T05:21:00;101029;;;6.53;80.10
57250;BME280;43102;52.014;-0.680;2023-12-20T05:22:00;101029;;;6.53;80.10
57250;BME280;43102;52.014;-0.680;2023-12-20T05:23:00;101029;;;6.53;80.10
57250;BME280;43102;52.014;-0.680;2023-12-20T05:24:00;101029;;;6.53;80.10
57250;BME280;43102;52.014;-0.680;2023-12-20T05:25:00;101029;;;6.53;80.10
57250;BME280;43102;52.014;-0.680;2023-12-20T05:26:00;101018;;;6.46;80.27